Bay Point, California
Current Conditions -  °F | °C
As of 2:22 PM on Sunday 21 Dec 2014 (Local Time) from KCCR Reporting Station
Broken Clouds Broken Clouds  
Wind Chill: 67°   Ceiling: 1800
Heat Index: 67°   Visibility: 10mi
Dew Point: 58°   Wind: 12mph
Humidity: 73%   Direction: 280°W
Pressure: 30.25"   Gusts: NA
Location:  38.0121°N, 121.92°W
Report Text: KCCR 212222Z 28010KT 10SM BKN018 19/14 A3025 RMK AO2 T01940144
Loading
Personal Weather Stations






























Interactive Weather Map New forecast layout! Learn more

10-Day Weather Forecast

Advertisements
Track Severe Weather on mobile